sensor_id;sensor_type;location;lat;lon;timestamp;P1;durP1;ratioP1;P2;durP2;ratioP2
26756;SDS011;23848;49.798;10.228;2022-12-18T07:34:44;44.35;;;22.55;;
26756;SDS011;23848;49.798;10.228;2022-12-18T07:37:20;43.60;;;22.35;;
26756;SDS011;23848;49.798;10.228;2022-12-18T07:40:15;40.45;;;22.05;;
26756;SDS011;23848;49.798;10.228;2022-12-18T07:43:15;40.08;;;22.33;;
26756;SDS011;23848;49.798;10.228;2022-12-18T07:45:55;49.28;;;26.35;;
26756;SDS011;23848;49.798;10.228;2022-12-18T07:48:44;54.20;;;27.10;;
26756;SDS011;23848;49.798;10.228;2022-12-18T07:51:24;51.28;;;25.38;;
26756;SDS011;23848;49.798;10.228;2022-12-18T07:54:01;48.55;;;26.13;;
26756;SDS011;23848;49.798;10.228;2022-12-18T07:56:44;58.65;;;30.10;;
26756;SDS011;23848;49.798;10.228;2022-12-18T08:10:02;53.20;;;25.88;;
26756;SDS011;23848;49.798;10.228;2022-12-18T08:12:38;55.80;;;26.80;;
26756;SDS011;23848;49.798;10.228;2022-12-18T08:15:17;47.78;;;24.27;;
26756;SDS011;23848;49.798;10.228;2022-12-18T08:20:28;51.40;;;22.05;;
26756;SDS011;23848;49.798;10.228;2022-12-18T08:23:18;49.30;;;24.38;;
26756;SDS011;23848;49.798;10.228;2022-12-18T08:26:03;52.85;;;25.33;;
26756;SDS011;23848;49.798;10.228;2022-12-18T08:28:42;57.47;;;26.90;;
26756;SDS011;23848;49.798;10.228;2022-12-18T08:31:32;54.33;;;27.65;;
26756;SDS011;23848;49.798;10.228;2022-12-18T08:36:45;52.35;;;27.10;;
26756;SDS011;23848;49.798;10.228;2022-12-18T08:39:33;50.28;;;23.35;;
26756;SDS011;23848;49.798;10.228;2022-12-18T08:42:17;51.10;;;25.63;;
26756;SDS011;23848;49.798;10.228;2022-12-18T08:45:17;49.08;;;24.00;;
26756;SDS011;23848;49.798;10.228;2022-12-18T08:48:17;48.97;;;22.73;;
26756;SDS011;23848;49.798;10.228;2022-12-18T08:51:01;47.53;;;22.83;;
26756;SDS011;23848;49.798;10.228;2022-12-18T08:53:43;50.67;;;22.52;;
26756;SDS011;23848;49.798;10.228;2022-12-18T08:56:28;46.40;;;21.13;;
26756;SDS011;23848;49.798;10.228;2022-12-18T08:59:03;45.50;;;22.30;;
26756;SDS011;23848;49.798;10.228;2022-12-18T09:01:47;45.75;;;23.42;;
26756;SDS011;23848;49.798;10.228;2022-12-18T09:04:17;49.00;;;23.77;;
26756;SDS011;23848;49.798;10.228;2022-12-18T09:07:00;49.00;;;23.65;;
26756;SDS011;23848;49.798;10.228;2022-12-18T09:09:35;51.25;;;22.45;;
26756;SDS011;23848;49.798;10.228;2022-12-18T09:12:18;45.20;;;21.92;;
26756;SDS011;23848;49.798;10.228;2022-12-18T09:17:41;40.15;;;18.55;;
26756;SDS011;23848;49.798;10.228;2022-12-18T09:25:33;42.42;;;19.30;;
26756;SDS011;23848;49.798;10.228;2022-12-18T09:31:08;42.45;;;18.83;;
26756;SDS011;23848;49.798;10.228;2022-12-18T09:33:59;42.80;;;19.75;;
26756;SDS011;23848;49.798;10.228;2022-12-18T09:36:46;47.05;;;20.08;;
26756;SDS011;23848;49.798;10.228;2022-12-18T09:39:21;38.80;;;19.35;;
26756;SDS011;23848;49.798;10.228;2022-12-18T09:55:37;45.47;;;20.98;;
26756;SDS011;23848;49.798;10.228;2022-12-18T10:02:21;38.47;;;18.65;;
26756;SDS011;23848;49.798;10.228;2022-12-18T10:05:33;39.88;;;18.67;;
26756;SDS011;23848;49.798;10.228;2022-12-18T10:08:16;38.83;;;19.33;;
26756;SDS011;23848;49.798;10.228;2022-12-18T10:18:58;37.17;;;17.65;;
26756;SDS011;23848;49.798;10.228;2022-12-18T10:42:49;31.25;;;15.27;;
26756;SDS011;23848;49.798;10.228;2022-12-18T10:56:35;31.42;;;15.50;;
26756;SDS011;23848;49.798;10.228;2022-12-18T10:59:15;31.20;;;16.05;;
26756;SDS011;23848;49.798;10.228;2022-12-18T11:01:56;25.67;;;12.48;;
26756;SDS011;23848;49.798;10.228;2022-12-18T11:04:51;31.05;;;15.23;;
26756;SDS011;23848;49.798;10.228;2022-12-18T11:07:23;31.85;;;15.77;;
26756;SDS011;23848;49.798;10.228;2022-12-18T11:10:05;30.23;;;16.02;;
26756;SDS011;23848;49.798;10.228;2022-12-18T11:12:45;33.13;;;16.50;;
26756;SDS011;23848;49.798;10.228;2022-12-18T11:15:27;33.30;;;16.35;;
26756;SDS011;23848;49.798;10.228;2022-12-18T11:18:37;32.08;;;15.48;;
26756;SDS011;23848;49.798;10.228;2022-12-18T11:21:22;29.60;;;15.10;;
26756;SDS011;23848;49.798;10.228;2022-12-18T11:26:50;25.40;;;12.93;;
26756;SDS011;23848;49.798;10.228;2022-12-18T11:30:06;26.83;;;12.38;;
26756;SDS011;23848;49.798;10.228;2022-12-18T11:35:54;29.00;;;13.68;;
26756;SDS011;23848;49.798;10.228;2022-12-18T13:25:45;21.85;;;11.73;;
26756;SDS011;23848;49.798;10.228;2022-12-18T13:28:52;24.02;;;12.18;;
26756;SDS011;23848;49.798;10.228;2022-12-18T13:50:57;22.33;;;11.55;;
26756;SDS011;23848;49.798;10.228;2022-12-18T13:53:42;26.75;;;13.18;;
26756;SDS011;23848;49.798;10.228;2022-12-18T13:56:43;23.20;;;12.55;;
26756;SDS011;23848;49.798;10.228;2022-12-18T13:59:23;23.35;;;12.45;;
26756;SDS011;23848;49.798;10.228;2022-12-18T14:02:16;24.73;;;12.55;;
26756;SDS011;23848;49.798;10.228;2022-12-18T14:04:46;23.85;;;11.88;;
26756;SDS011;23848;49.798;10.228;2022-12-18T14:07:19;28.55;;;14.65;;
26756;SDS011;23848;49.798;10.228;2022-12-18T14:09:51;20.10;;;10.65;;
26756;SDS011;23848;49.798;10.228;2022-12-18T14:13:10;23.92;;;12.07;;
26756;SDS011;23848;49.798;10.228;2022-12-18T14:16:06;21.92;;;12.45;;
26756;SDS011;23848;49.798;10.228;2022-12-18T14:18:44;24.02;;;12.07;;
26756;SDS011;23848;49.798;10.228;2022-12-18T14:21:40;25.92;;;12.38;;
26756;SDS011;23848;49.798;10.228;2022-12-18T14:24:21;24.05;;;12.27;;
26756;SDS011;23848;49.798;10.228;2022-12-18T14:27:12;24.77;;;12.10;;
26756;SDS011;23848;49.798;10.228;2022-12-18T14:29:42;25.20;;;12.95;;
26756;SDS011;23848;49.798;10.228;2022-12-18T14:32:16;26.27;;;12.63;;
26756;SDS011;23848;49.798;10.228;2022-12-18T14:34:48;27.33;;;13.77;;
26756;SDS011;23848;49.798;10.228;2022-12-18T14:37:22;28.75;;;13.80;;
26756;SDS011;23848;49.798;10.228;2022-12-18T14:39:59;27.63;;;14.85;;
26756;SDS011;23848;49.798;10.228;2022-12-18T14:42:36;25.13;;;14.23;;
26756;SDS011;23848;49.798;10.228;2022-12-18T14:48:06;25.85;;;12.80;;
26756;SDS011;23848;49.798;10.228;2022-12-18T14:50:44;26.85;;;13.15;;
26756;SDS011;23848;49.798;10.228;2022-12-18T14:53:28;33.72;;;14.73;;
26756;SDS011;23848;49.798;10.228;2022-12-18T14:59:30;29.83;;;15.18;;
26756;SDS011;23848;49.798;10.228;2022-12-18T15:02:25;25.95;;;13.55;;
26756;SDS011;23848;49.798;10.228;2022-12-18T15:05:03;25.33;;;13.27;;
26756;SDS011;23848;49.798;10.228;2022-12-18T15:07:41;24.42;;;13.35;;
26756;SDS011;23848;49.798;10.228;2022-12-18T15:12:47;28.33;;;16.50;;
26756;SDS011;23848;49.798;10.228;2022-12-18T15:21:46;27.50;;;11.88;;
26756;SDS011;23848;49.798;10.228;2022-12-18T15:24:38;24.70;;;13.32;;
26756;SDS011;23848;49.798;10.228;2022-12-18T15:31:17;24.95;;;12.57;;
26756;SDS011;23848;49.798;10.228;2022-12-18T15:34:04;26.15;;;13.98;;
26756;SDS011;23848;49.798;10.228;2022-12-18T15:36:35;27.70;;;14.15;;
26756;SDS011;23848;49.798;10.228;2022-12-18T15:39:14;26.42;;;13.32;;
26756;SDS011;23848;49.798;10.228;2022-12-18T15:41:43;29.25;;;14.30;;
26756;SDS011;23848;49.798;10.228;2022-12-18T15:45:15;30.08;;;13.00;;
26756;SDS011;23848;49.798;10.228;2022-12-18T15:47:26;26.58;;;14.18;;
26756;SDS011;23848;49.798;10.228;2022-12-18T15:54:46;28.85;;;13.40;;
26756;SDS011;23848;49.798;10.228;2022-12-18T18:19:40;34.70;;;17.73;;
26756;SDS011;23848;49.798;10.228;2022-12-18T19:55:13;38.10;;;19.95;;
